Terminal Aerodrome Forecast
Issued by NWS Cleveland, OH

Home | Current Version | Previous Version | Graphics & Text | Print | Product List | Glossary On
Versions: 1 2 3 4 5 6 7 8 9 10 11 12 13 14 15 16 17 18
000
FTUS41 KCLE 161400 AAA
TAFCAK
TAF AMD
KCAK 161406Z 1614/1712 31002KT 4SM BR BKN005 OVC050
      TEMPO 1614/1616 2SM BR
     FM161600 34006KT P6SM BKN012 OVC025
     FM161800 36006KT P6SM BKN025
     FM162000 34006KT P6SM SCT035
     FM170100 31004KT P6SM SKC
     FM170900 05002KT 3SM BR SCT008=

USA.gov is the U.S. government's official web portal to all federal, state and local government web resources and services.